createdAt,value
2018-07-10T00:02:18.120Z,22.85
2018-07-10T00:07:06.774Z,22.80
2018-07-10T00:11:59.269Z,22.20
2018-07-10T00:14:41.178Z,21.91
2018-07-10T00:17:22.396Z,22.15
2018-07-10T00:20:06.711Z,22.19
2018-07-10T00:22:44.163Z,22.52
2018-07-10T00:25:22.186Z,22.30
2018-07-10T00:28:02.020Z,22.40
2018-07-10T00:30:41.894Z,22.50
2018-07-10T00:41:43.341Z,22.59
2018-07-10T00:44:13.209Z,22.56
2018-07-10T00:46:43.462Z,22.52
2018-07-10T00:49:13.281Z,22.65
2018-07-10T00:51:43.797Z,22.69
2018-07-10T00:54:13.737Z,22.62
2018-07-10T00:56:43.591Z,22.64
2018-07-10T00:59:13.458Z,22.58
2018-07-10T01:01:43.383Z,22.62
2018-07-10T01:04:12.896Z,22.56
2018-07-10T01:06:42.755Z,22.69
2018-07-10T01:09:14.516Z,22.21
2018-07-10T01:11:45.017Z,22.11
2018-07-10T01:14:14.924Z,22.32
2018-07-10T01:16:44.777Z,22.66
2018-07-10T01:19:16.504Z,22.48
2018-07-10T01:21:47.896Z,22.22
2018-07-10T01:24:18.394Z,21.82
2018-07-10T01:26:49.805Z,22.03
2018-07-10T01:29:24.786Z,22.12
2018-07-10T01:31:54.928Z,22.23
2018-07-10T01:34:25.071Z,22.20
2018-07-10T01:36:54.869Z,22.37
2018-07-10T01:39:25.032Z,22.43
2018-07-10T01:41:54.785Z,22.26
2018-07-10T01:44:24.682Z,22.24
2018-07-10T01:46:54.614Z,22.29
2018-07-10T01:49:24.401Z,22.29
2018-07-10T01:51:55.266Z,22.16
2018-07-10T01:54:25.016Z,22.17
2018-07-10T01:56:54.964Z,22.18
2018-07-10T01:59:24.947Z,22.21
2018-07-10T02:01:54.771Z,22.15
2018-07-10T02:04:24.754Z,22.07
2018-07-10T02:06:54.704Z,22.14
2018-07-10T02:09:24.573Z,22.18
2018-07-10T02:11:54.633Z,21.99
2018-07-10T02:14:24.156Z,22.08
2018-07-10T02:16:54.023Z,22.00
2018-07-10T02:19:24.076Z,21.81
2018-07-10T02:21:54.475Z,21.70
2018-07-10T02:27:00.899Z,21.46
2018-07-10T02:29:30.774Z,21.54
2018-07-10T02:32:00.620Z,21.71
2018-07-10T02:34:30.551Z,21.59
2018-07-10T02:37:02.854Z,21.61
2018-07-10T02:39:32.714Z,21.59
2018-07-10T02:42:02.630Z,21.55
2018-07-10T02:44:32.604Z,21.49
2018-07-10T02:47:02.722Z,21.58
2018-07-10T02:49:32.700Z,21.35
2018-07-10T02:52:05.574Z,21.38
2018-07-10T02:54:38.932Z,21.24
2018-07-10T02:57:10.608Z,21.29
2018-07-10T02:59:41.514Z,21.33
2018-07-10T03:02:22.718Z,21.27
2018-07-10T03:05:00.066Z,21.27
2018-07-10T03:07:32.049Z,21.29
2018-07-10T03:10:02.511Z,21.20
2018-07-10T03:12:37.008Z,21.22
2018-07-10T03:15:11.892Z,21.17
2018-07-10T03:17:42.285Z,21.07
2018-07-10T03:20:12.161Z,21.13
2018-07-10T03:22:42.009Z,21.12
2018-07-10T03:25:11.845Z,21.01
2018-07-10T03:27:41.629Z,20.80
2018-07-10T03:30:11.860Z,20.92
2018-07-10T03:32:42.350Z,20.86
2018-07-10T03:35:13.592Z,20.42
2018-07-10T03:37:43.441Z,20.22
2018-07-10T03:40:15.684Z,20.23
2018-07-10T03:42:46.077Z,20.17
2018-07-10T03:45:16.590Z,20.32
2018-07-10T03:47:50.709Z,20.50
2018-07-10T03:50:20.641Z,20.60
2018-07-10T03:52:50.579Z,20.58
2018-07-10T03:55:21.262Z,20.70
2018-07-10T03:57:54.216Z,20.94
2018-07-10T04:00:24.146Z,21.01
2018-07-10T04:02:54.263Z,20.95
2018-07-10T04:05:24.570Z,20.93
2018-07-10T04:07:56.263Z,20.87
2018-07-10T04:10:31.592Z,21.20
2018-07-10T04:13:09.806Z,21.32
2018-07-10T04:15:40.091Z,21.56
2018-07-10T04:18:15.820Z,21.65
2018-07-10T04:21:31.322Z,21.70
2018-07-10T04:24:04.330Z,21.61
2018-07-10T04:26:36.673Z,21.64
2018-07-10T04:29:16.014Z,21.66
2018-07-10T04:31:56.902Z,21.76
2018-07-10T04:34:30.294Z,21.82
2018-07-10T04:37:08.841Z,21.96
2018-07-10T04:39:40.644Z,21.93
2018-07-10T04:42:30.734Z,21.89
2018-07-10T04:45:10.420Z,21.87
2018-07-10T04:47:53.323Z,22.03
2018-07-10T04:51:33.677Z,22.07
2018-07-10T04:54:23.660Z,21.53
2018-07-10T04:57:00.314Z,21.73
2018-07-10T04:59:30.958Z,22.07
2018-07-10T05:02:01.237Z,22.17
2018-07-10T05:04:31.593Z,22.36
2018-07-10T05:07:05.245Z,22.50
2018-07-10T05:09:35.888Z,22.48
2018-07-10T05:12:06.767Z,22.60
2018-07-10T05:17:17.504Z,22.77
2018-07-10T05:19:48.884Z,23.15
2018-07-10T05:22:24.955Z,23.08
2018-07-10T05:24:57.766Z,23.11
2018-07-10T05:27:27.594Z,23.12
2018-07-10T05:29:58.848Z,23.06
2018-07-10T05:32:32.140Z,23.03
2018-07-10T05:35:02.521Z,22.95
2018-07-10T05:37:35.526Z,22.95
2018-07-10T05:40:08.724Z,22.69
2018-07-10T05:42:46.375Z,22.75
2018-07-10T05:45:20.027Z,23.15
2018-07-10T05:47:53.580Z,23.06
2018-07-10T05:50:23.579Z,23.06
2018-07-10T05:52:54.557Z,23.50
2018-07-10T05:55:27.466Z,23.64
2018-07-10T05:57:58.910Z,23.80
2018-07-10T06:00:30.636Z,23.88
2018-07-10T06:03:00.269Z,24.28
2018-07-10T06:05:30.747Z,24.42
2018-07-10T06:08:02.257Z,24.51
2018-07-10T06:10:32.030Z,25.03
2018-07-10T06:13:03.384Z,25.15
2018-07-10T06:15:37.963Z,25.61
2018-07-10T06:18:10.531Z,25.49
2018-07-10T06:20:41.718Z,25.17
2018-07-10T06:23:12.849Z,25.05
2018-07-10T06:25:50.233Z,25.20
2018-07-10T06:37:04.370Z,25.47
2018-07-10T06:39:34.581Z,25.38
2018-07-10T06:44:49.965Z,25.53
2018-07-10T06:47:26.991Z,25.40
2018-07-10T06:49:58.606Z,25.33
2018-07-10T06:52:28.646Z,25.34
2018-07-10T06:55:09.004Z,25.35
2018-07-10T06:57:45.905Z,25.53
2018-07-10T07:00:15.661Z,25.85
2018-07-10T07:02:45.564Z,26.02
2018-07-10T07:05:15.420Z,26.05
2018-07-10T07:10:20.760Z,26.71
2018-07-10T07:12:52.577Z,27.10
2018-07-10T07:15:22.438Z,27.41
2018-07-10T07:17:53.289Z,27.76
2018-07-10T07:20:23.700Z,27.89
2018-07-10T07:22:53.577Z,27.44
2018-07-10T07:25:23.338Z,27.90
2018-07-10T07:27:54.831Z,28.06
2018-07-10T07:30:25.045Z,28.32
2018-07-10T07:32:54.853Z,28.14
2018-07-10T07:35:24.643Z,28.14
2018-07-10T07:37:54.726Z,28.31
2018-07-10T07:40:25.474Z,28.11
2018-07-10T07:42:55.237Z,28.37
2018-07-10T07:45:26.046Z,28.51
2018-07-10T07:50:30.965Z,28.83
2018-07-10T07:53:01.821Z,28.90
2018-07-10T07:55:32.643Z,28.83
2018-07-10T07:58:02.984Z,29.05
2018-07-10T08:00:32.985Z,29.40
2018-07-10T08:03:02.589Z,29.26
2018-07-10T08:05:32.922Z,29.35
2018-07-10T08:08:02.665Z,29.33
2018-07-10T08:10:33.124Z,29.26
2018-07-10T08:13:04.291Z,29.37
2018-07-10T08:15:36.118Z,29.40
2018-07-10T08:18:05.914Z,29.72
2018-07-10T08:20:35.655Z,30.61
2018-07-10T08:23:05.311Z,30.70
2018-07-10T08:25:35.225Z,31.26
2018-07-10T08:28:05.452Z,31.34
2018-07-10T08:30:35.164Z,31.08
2018-07-10T08:33:04.929Z,31.03
2018-07-10T08:35:34.629Z,30.88
2018-07-10T08:38:04.599Z,31.33
2018-07-10T08:40:34.240Z,31.51
2018-07-10T08:43:04.230Z,31.63
2018-07-10T08:45:33.939Z,31.82
2018-07-10T08:48:03.862Z,31.68
2018-07-10T08:50:33.670Z,31.98
2018-07-10T08:53:03.330Z,31.61
2018-07-10T08:55:33.026Z,31.41
2018-07-10T08:58:02.864Z,30.99
2018-07-10T09:00:32.538Z,30.61
2018-07-10T09:03:02.419Z,30.65
2018-07-10T09:05:32.171Z,30.71
2018-07-10T09:08:01.991Z,30.80
2018-07-10T09:10:31.713Z,30.80
2018-07-10T09:13:01.461Z,30.62
2018-07-10T09:15:32.632Z,30.81
2018-07-10T09:18:03.567Z,30.59
2018-07-10T09:20:39.123Z,30.66
2018-07-10T09:23:08.989Z,31.01
2018-07-10T09:25:38.893Z,31.25
2018-07-10T09:28:08.428Z,30.93
2018-07-10T09:30:38.272Z,30.90
2018-07-10T09:33:08.461Z,31.07
2018-07-10T09:35:38.181Z,31.34
2018-07-10T09:38:08.373Z,31.69
2018-07-10T09:40:38.160Z,31.64
2018-07-10T09:43:08.320Z,31.58
2018-07-10T09:45:38.886Z,31.88
2018-07-10T09:48:09.538Z,32.00
2018-07-10T09:50:40.044Z,31.73
2018-07-10T09:53:09.836Z,31.82
2018-07-10T09:55:39.709Z,31.70
2018-07-10T09:58:10.032Z,31.98
2018-07-10T10:00:44.918Z,31.84
2018-07-10T10:09:11.673Z,32.05
2018-07-10T10:11:57.202Z,31.95
2018-07-10T10:14:39.781Z,31.71
2018-07-10T10:17:20.230Z,32.65
2018-07-10T10:25:41.946Z,32.71
2018-07-10T10:31:08.574Z,31.79
2018-07-10T10:33:46.017Z,31.66
2018-07-10T10:39:12.140Z,32.07
2018-07-10T10:44:38.073Z,32.31
2018-07-10T10:47:11.732Z,32.77
2018-07-10T10:49:52.268Z,32.51
2018-07-10T10:52:38.396Z,32.42
2018-07-10T10:55:28.443Z,32.18
2018-07-10T11:01:05.394Z,31.89
2018-07-10T11:09:28.790Z,32.41
2018-07-10T11:12:10.779Z,32.31
2018-07-10T11:15:06.162Z,32.19
2018-07-10T11:18:02.450Z,32.56
2018-07-10T11:20:57.521Z,33.34
2018-07-10T11:26:35.759Z,32.73
2018-07-10T11:29:18.115Z,32.49
2018-07-10T11:31:57.256Z,32.51
2018-07-10T11:34:32.040Z,32.57
2018-07-10T11:37:15.610Z,32.79
2018-07-10T11:39:53.135Z,32.99
2018-07-10T11:42:31.100Z,32.99
2018-07-10T11:45:12.161Z,32.76
2018-07-10T11:47:50.420Z,32.49
2018-07-10T11:50:25.892Z,32.17
2018-07-10T11:53:05.844Z,32.60
2018-07-10T11:55:43.773Z,33.15
2018-07-10T11:58:26.850Z,33.50
2018-07-10T12:01:05.887Z,33.43
2018-07-10T12:03:47.043Z,33.07
2018-07-10T12:06:26.001Z,33.24
2018-07-10T12:09:05.765Z,33.68
2018-07-10T12:11:43.886Z,33.63
2018-07-10T12:14:20.400Z,34.05
2018-07-10T12:16:54.503Z,34.12
2018-07-10T12:19:34.029Z,34.40
2018-07-10T12:22:23.788Z,34.32
2018-07-10T12:25:07.397Z,34.23
2018-07-10T12:30:28.274Z,34.15
2018-07-10T12:33:07.047Z,34.23
2018-07-10T12:35:48.296Z,34.07
2018-07-10T12:38:26.152Z,34.12
2018-07-10T12:41:07.821Z,33.79
2018-07-10T12:43:46.627Z,33.56
2018-07-10T12:46:21.177Z,33.62
2018-07-10T12:48:58.681Z,33.73
2018-07-10T12:51:38.885Z,34.09
2018-07-10T12:54:14.808Z,33.99
2018-07-10T12:56:49.650Z,34.35
2018-07-10T12:59:28.401Z,34.65
2018-07-10T13:02:10.609Z,34.49
2018-07-10T13:04:48.592Z,33.91
2018-07-10T13:07:26.722Z,33.89
2018-07-10T13:10:00.268Z,34.00
2018-07-10T13:12:40.235Z,33.94
2018-07-10T13:15:17.407Z,33.01
2018-07-10T13:18:06.511Z,32.65
2018-07-10T13:20:48.046Z,32.83
2018-07-10T13:23:26.239Z,32.46
2018-07-10T13:26:01.682Z,32.71
2018-07-10T13:28:35.797Z,32.70
2018-07-10T13:31:13.398Z,32.45
2018-07-10T13:33:55.209Z,32.62
2018-07-10T13:36:32.332Z,32.39
2018-07-10T13:39:11.220Z,32.88
2018-07-10T13:44:41.165Z,32.41
2018-07-10T13:47:14.819Z,32.20
2018-07-10T13:49:51.475Z,32.43
2018-07-10T13:52:38.900Z,32.38
2018-07-10T13:55:19.856Z,32.11
2018-07-10T14:01:12.680Z,32.44
2018-07-10T14:06:27.262Z,32.65
2018-07-10T14:11:51.409Z,32.98
2018-07-10T14:14:32.640Z,33.37
2018-07-10T14:17:13.540Z,33.43
2018-07-10T14:19:52.476Z,33.32
2018-07-10T14:22:29.456Z,33.24
2018-07-10T14:25:13.729Z,33.28
2018-07-10T14:27:58.845Z,32.75
2018-07-10T14:30:37.832Z,33.08
2018-07-10T14:33:19.858Z,33.10
2018-07-10T14:38:44.188Z,32.69
2018-07-10T14:44:05.970Z,32.23
2018-07-10T14:46:48.943Z,32.04
2018-07-10T14:49:28.504Z,31.90
2018-07-10T14:54:42.394Z,31.91
2018-07-10T14:57:24.711Z,31.79
2018-07-10T15:05:24.503Z,31.82
2018-07-10T15:07:57.645Z,31.50
2018-07-10T15:10:30.009Z,31.60
2018-07-10T15:13:05.198Z,31.44
2018-07-10T15:15:50.196Z,31.33
2018-07-10T15:18:30.620Z,31.41
2018-07-10T15:21:08.301Z,31.10
2018-07-10T15:23:48.873Z,31.01
2018-07-10T15:26:35.672Z,31.02
2018-07-10T15:29:25.069Z,30.79
2018-07-10T15:32:08.297Z,30.35
2018-07-10T15:37:31.869Z,30.61
2018-07-10T15:40:12.870Z,30.78
2018-07-10T15:43:00.836Z,30.75
2018-07-10T15:48:19.432Z,30.14
2018-07-10T15:51:05.208Z,29.45
2018-07-10T15:53:47.623Z,29.14
2018-07-10T15:56:30.336Z,29.15
2018-07-10T15:59:08.418Z,28.84
2018-07-10T16:01:46.960Z,28.77
2018-07-10T16:10:13.174Z,28.77
2018-07-10T16:18:56.054Z,29.16
2018-07-10T16:21:53.265Z,29.19
2018-07-10T16:27:23.917Z,29.55
2018-07-10T16:30:14.468Z,29.68
2018-07-10T16:33:07.362Z,29.08
2018-07-10T16:38:46.533Z,26.37
2018-07-10T16:41:31.728Z,25.01
2018-07-10T16:55:46.706Z,24.48
2018-07-10T16:58:31.090Z,24.24
2018-07-10T17:01:19.125Z,24.79
2018-07-10T17:09:35.728Z,25.27
2018-07-10T17:15:00.919Z,25.55
2018-07-10T17:20:16.459Z,25.58
2018-07-10T17:22:58.544Z,25.52
2018-07-10T17:28:21.832Z,25.53
2018-07-10T17:31:01.541Z,25.52
2018-07-10T17:33:48.564Z,25.51
2018-07-10T17:39:31.498Z,25.39
2018-07-10T17:44:51.665Z,25.23
2018-07-10T17:47:38.998Z,25.04
2018-07-10T17:50:21.529Z,24.90
2018-07-10T17:56:10.632Z,24.54
2018-07-10T18:01:40.705Z,24.54
2018-07-10T18:04:24.527Z,24.44
2018-07-10T18:09:53.281Z,24.53
2018-07-10T18:12:34.232Z,23.48
2018-07-10T18:18:05.966Z,23.16
2018-07-10T18:20:49.488Z,23.32
2018-07-10T18:23:23.609Z,23.59
2018-07-10T18:25:58.312Z,23.70
2018-07-10T18:28:41.772Z,23.70
2018-07-10T18:31:24.867Z,23.46
2018-07-10T18:33:59.337Z,23.59
2018-07-10T18:36:32.136Z,23.81
2018-07-10T18:39:11.341Z,23.60
2018-07-10T18:41:45.007Z,23.34
2018-07-10T18:44:18.640Z,23.26
2018-07-10T18:47:09.432Z,22.80
2018-07-10T18:49:43.369Z,22.66
2018-07-10T18:55:16.442Z,22.63
2018-07-10T19:00:09.194Z,22.70
2018-07-10T19:02:50.385Z,22.88
2018-07-10T19:05:33.521Z,22.98
2018-07-10T19:10:49.360Z,23.12
2018-07-10T19:13:36.117Z,23.13
2018-07-10T19:16:10.629Z,23.08
2018-07-10T19:18:54.723Z,22.95
2018-07-10T19:21:40.917Z,23.31
2018-07-10T19:24:20.672Z,23.43
2018-07-10T19:26:57.231Z,23.09
2018-07-10T19:29:47.948Z,23.19
2018-07-10T19:32:24.698Z,23.21
2018-07-10T19:35:09.418Z,23.11
2018-07-10T19:37:57.194Z,22.66
2018-07-10T19:43:25.765Z,22.04
2018-07-10T19:46:07.172Z,22.44
2018-07-10T19:48:55.480Z,22.59
2018-07-10T19:51:32.169Z,22.40
2018-07-10T19:54:14.324Z,22.20
2018-07-10T19:56:51.585Z,22.05
2018-07-10T19:59:34.653Z,22.65
2018-07-10T20:02:20.955Z,22.51
2018-07-10T20:05:07.143Z,22.60
2018-07-10T20:07:46.874Z,22.51
2018-07-10T20:10:37.182Z,22.69
2018-07-10T20:13:22.844Z,22.68
2018-07-10T20:16:10.501Z,22.76
2018-07-10T20:20:26.724Z,23.17
2018-07-10T20:23:07.274Z,22.98
2018-07-10T20:25:56.814Z,23.13
2018-07-10T20:29:50.222Z,22.93
2018-07-10T20:34:48.223Z,22.87
2018-07-10T20:37:35.764Z,22.82
2018-07-10T20:40:17.983Z,22.64
2018-07-10T20:45:49.311Z,22.75
2018-07-10T20:48:43.466Z,22.62
2018-07-10T20:54:31.768Z,22.54
2018-07-10T20:57:42.728Z,22.34
2018-07-10T21:00:20.373Z,21.95
2018-07-10T21:05:09.502Z,22.30
2018-07-10T21:07:58.090Z,22.42
2018-07-10T21:10:39.837Z,22.42
2018-07-10T21:13:16.670Z,22.63
2018-07-10T21:17:04.613Z,22.90
2018-07-10T21:19:47.575Z,22.80
2018-07-10T21:26:48.942Z,22.56
2018-07-10T21:29:44.484Z,21.91
2018-07-10T21:32:31.999Z,21.83
2018-07-10T21:35:15.237Z,21.69
2018-07-10T21:38:04.322Z,21.66
2018-07-10T21:42:08.485Z,21.92
2018-07-10T21:46:00.357Z,22.28
2018-07-10T21:48:55.829Z,22.26
2018-07-10T21:51:36.238Z,22.29
2018-07-10T21:54:17.380Z,22.28
2018-07-10T21:56:51.152Z,22.44
2018-07-10T22:04:59.942Z,21.78
2018-07-10T22:07:36.470Z,21.69
2018-07-10T22:10:14.421Z,21.89
2018-07-10T22:15:38.349Z,22.21
2018-07-10T22:18:17.851Z,22.46
2018-07-10T22:21:02.004Z,22.24
2018-07-10T22:23:39.837Z,22.25
2018-07-10T22:26:30.736Z,21.87
2018-07-10T22:32:18.516Z,21.86
2018-07-10T22:43:20.252Z,21.60
2018-07-10T22:45:57.792Z,21.65
2018-07-10T22:48:42.790Z,21.82
2018-07-10T22:51:28.994Z,22.05
2018-07-10T22:54:09.436Z,22.15
2018-07-10T23:02:16.207Z,22.30
2018-07-10T23:04:56.518Z,22.05
2018-07-10T23:10:29.723Z,21.95
2018-07-10T23:15:50.543Z,21.87
2018-07-10T23:18:23.796Z,21.76
2018-07-10T23:20:58.532Z,21.69
2018-07-10T23:23:33.213Z,21.62
2018-07-10T23:26:06.526Z,21.64
2018-07-10T23:28:40.902Z,21.85
2018-07-10T23:31:16.347Z,22.10
2018-07-10T23:33:54.393Z,22.07
2018-07-10T23:36:27.308Z,21.93
2018-07-10T23:39:14.188Z,21.83
2018-07-10T23:41:54.122Z,21.71
2018-07-10T23:44:57.969Z,21.65
2018-07-10T23:47:34.263Z,21.52
2018-07-10T23:50:14.610Z,21.54
2018-07-10T23:53:30.032Z,21.49
2018-07-10T23:56:02.713Z,21.70
2018-07-10T23:58:36.669Z,21.96
